sensor_id;sensor_type;location;lat;lon;timestamp;P1;durP1;ratioP1;P2;durP2;ratioP2
14945;SDS011;7567;50.916;6.900;2022-07-06T00:01:56;2.58;;;1.55;;
14945;SDS011;7567;50.916;6.900;2022-07-06T00:04:22;4.20;;;1.70;;
14945;SDS011;7567;50.916;6.900;2022-07-06T00:06:48;2.28;;;1.27;;
14945;SDS011;7567;50.916;6.900;2022-07-06T00:09:14;2.05;;;1.40;;
14945;SDS011;7567;50.916;6.900;2022-07-06T00:11:40;4.78;;;2.33;;
14945;SDS011;7567;50.916;6.900;2022-07-06T00:14:06;3.78;;;1.90;;
14945;SDS011;7567;50.916;6.900;2022-07-06T00:16:32;5.32;;;1.77;;
14945;SDS011;7567;50.916;6.900;2022-07-06T00:18:58;3.08;;;1.55;;
14945;SDS011;7567;50.916;6.900;2022-07-06T00:21:24;5.22;;;2.15;;
14945;SDS011;7567;50.916;6.900;2022-07-06T00:23:50;3.78;;;1.77;;
14945;SDS011;7567;50.916;6.900;2022-07-06T00:26:17;4.30;;;1.90;;
14945;SDS011;7567;50.916;6.900;2022-07-06T00:28:44;3.15;;;1.90;;
14945;SDS011;7567;50.916;6.900;2022-07-06T00:31:10;4.13;;;2.10;;
14945;SDS011;7567;50.916;6.900;2022-07-06T00:33:36;5.28;;;2.00;;
14945;SDS011;7567;50.916;6.900;2022-07-06T00:36:02;2.80;;;1.85;;
14945;SDS011;7567;50.916;6.900;2022-07-06T00:38:28;4.20;;;1.73;;
14945;SDS011;7567;50.916;6.900;2022-07-06T00:40:54;5.72;;;1.73;;
14945;SDS011;7567;50.916;6.900;2022-07-06T00:43:20;5.05;;;1.70;;
14945;SDS011;7567;50.916;6.900;2022-07-06T00:45:46;3.83;;;1.80;;
14945;SDS011;7567;50.916;6.900;2022-07-06T00:48:12;4.75;;;2.10;;
14945;SDS011;7567;50.916;6.900;2022-07-06T00:50:38;2.33;;;1.60;;
14945;SDS011;7567;50.916;6.900;2022-07-06T00:53:05;6.25;;;1.80;;
14945;SDS011;7567;50.916;6.900;2022-07-06T00:55:34;2.63;;;1.77;;
14945;SDS011;7567;50.916;6.900;2022-07-06T00:58:04;4.10;;;1.55;;
14945;SDS011;7567;50.916;6.900;2022-07-06T01:00:31;2.42;;;1.77;;
14945;SDS011;7567;50.916;6.900;2022-07-06T01:02:57;4.78;;;1.92;;
14945;SDS011;7567;50.916;6.900;2022-07-06T01:05:23;4.07;;;1.75;;
14945;SDS011;7567;50.916;6.900;2022-07-06T01:07:51;4.43;;;2.10;;
14945;SDS011;7567;50.916;6.900;2022-07-06T01:10:18;6.35;;;2.15;;
14945;SDS011;7567;50.916;6.900;2022-07-06T01:12:46;2.50;;;1.77;;
14945;SDS011;7567;50.916;6.900;2022-07-06T01:15:20;4.65;;;1.90;;
14945;SDS011;7567;50.916;6.900;2022-07-06T01:17:48;4.75;;;2.00;;
14945;SDS011;7567;50.916;6.900;2022-07-06T01:20:20;3.28;;;1.75;;
14945;SDS011;7567;50.916;6.900;2022-07-06T01:22:48;3.50;;;2.17;;
14945;SDS011;7567;50.916;6.900;2022-07-06T01:25:15;4.25;;;2.20;;
14945;SDS011;7567;50.916;6.900;2022-07-06T01:27:42;5.07;;;2.22;;
14945;SDS011;7567;50.916;6.900;2022-07-06T01:30:10;5.38;;;2.42;;
14945;SDS011;7567;50.916;6.900;2022-07-06T01:32:37;3.95;;;2.03;;
14945;SDS011;7567;50.916;6.900;2022-07-06T01:35:05;4.20;;;1.98;;
14945;SDS011;7567;50.916;6.900;2022-07-06T01:37:32;4.28;;;1.95;;
14945;SDS011;7567;50.916;6.900;2022-07-06T01:39:58;4.85;;;2.15;;
14945;SDS011;7567;50.916;6.900;2022-07-06T01:42:26;4.78;;;2.20;;
14945;SDS011;7567;50.916;6.900;2022-07-06T01:44:52;4.40;;;2.35;;
14945;SDS011;7567;50.916;6.900;2022-07-06T01:47:18;3.83;;;1.90;;
14945;SDS011;7567;50.916;6.900;2022-07-06T01:49:44;5.75;;;1.95;;
14945;SDS011;7567;50.916;6.900;2022-07-06T01:52:10;4.00;;;2.20;;
14945;SDS011;7567;50.916;6.900;2022-07-06T01:54:36;6.35;;;2.63;;
14945;SDS011;7567;50.916;6.900;2022-07-06T01:57:02;3.50;;;2.08;;
14945;SDS011;7567;50.916;6.900;2022-07-06T01:59:28;3.45;;;2.08;;
14945;SDS011;7567;50.916;6.900;2022-07-06T02:01:54;5.43;;;2.38;;
14945;SDS011;7567;50.916;6.900;2022-07-06T02:04:20;3.00;;;1.98;;
14945;SDS011;7567;50.916;6.900;2022-07-06T02:06:47;2.83;;;1.92;;
14945;SDS011;7567;50.916;6.900;2022-07-06T02:09:13;4.57;;;2.25;;
14945;SDS011;7567;50.916;6.900;2022-07-06T02:11:39;2.92;;;1.98;;
14945;SDS011;7567;50.916;6.900;2022-07-06T02:14:05;4.80;;;2.15;;
14945;SDS011;7567;50.916;6.900;2022-07-06T02:16:31;2.75;;;1.92;;
14945;SDS011;7567;50.916;6.900;2022-07-06T02:18:56;4.85;;;2.30;;
14945;SDS011;7567;50.916;6.900;2022-07-06T02:21:22;6.88;;;2.40;;
14945;SDS011;7567;50.916;6.900;2022-07-06T02:23:48;4.13;;;2.28;;
14945;SDS011;7567;50.916;6.900;2022-07-06T02:26:14;2.83;;;2.03;;
14945;SDS011;7567;50.916;6.900;2022-07-06T02:28:40;2.58;;;2.28;;
14945;SDS011;7567;50.916;6.900;2022-07-06T02:31:06;2.65;;;2.17;;
14945;SDS011;7567;50.916;6.900;2022-07-06T02:33:32;3.72;;;1.80;;
14945;SDS011;7567;50.916;6.900;2022-07-06T02:35:58;4.10;;;2.30;;
14945;SDS011;7567;50.916;6.900;2022-07-06T02:38:24;5.32;;;2.28;;
14945;SDS011;7567;50.916;6.900;2022-07-06T02:40:50;2.65;;;2.03;;
14945;SDS011;7567;50.916;6.900;2022-07-06T02:43:16;2.67;;;1.90;;
14945;SDS011;7567;50.916;6.900;2022-07-06T02:45:43;3.30;;;2.05;;
14945;SDS011;7567;50.916;6.900;2022-07-06T02:48:09;6.40;;;2.08;;
14945;SDS011;7567;50.916;6.900;2022-07-06T02:50:35;4.35;;;2.17;;
14945;SDS011;7567;50.916;6.900;2022-07-06T02:53:00;2.80;;;1.95;;
14945;SDS011;7567;50.916;6.900;2022-07-06T02:55:27;3.45;;;1.90;;
14945;SDS011;7567;50.916;6.900;2022-07-06T02:57:53;2.55;;;1.95;;
14945;SDS011;7567;50.916;6.900;2022-07-06T03:00:19;2.97;;;1.90;;
14945;SDS011;7567;50.916;6.900;2022-07-06T03:02:44;4.57;;;1.95;;
14945;SDS011;7567;50.916;6.900;2022-07-06T03:05:10;3.75;;;1.80;;
14945;SDS011;7567;50.916;6.900;2022-07-06T03:07:36;3.25;;;1.90;;
14945;SDS011;7567;50.916;6.900;2022-07-06T03:10:03;5.40;;;2.15;;
14945;SDS011;7567;50.916;6.900;2022-07-06T03:12:29;4.30;;;2.08;;
14945;SDS011;7567;50.916;6.900;2022-07-06T03:14:55;4.38;;;2.17;;
14945;SDS011;7567;50.916;6.900;2022-07-06T03:17:21;3.28;;;1.80;;
14945;SDS011;7567;50.916;6.900;2022-07-06T03:19:47;4.18;;;2.15;;
14945;SDS011;7567;50.916;6.900;2022-07-06T03:22:12;4.90;;;2.15;;
14945;SDS011;7567;50.916;6.900;2022-07-06T03:24:39;3.88;;;2.17;;
14945;SDS011;7567;50.916;6.900;2022-07-06T03:27:05;4.47;;;1.90;;
14945;SDS011;7567;50.916;6.900;2022-07-06T03:29:31;2.97;;;2.13;;
14945;SDS011;7567;50.916;6.900;2022-07-06T03:31:56;3.15;;;2.10;;
14945;SDS011;7567;50.916;6.900;2022-07-06T03:34:22;2.90;;;2.10;;
14945;SDS011;7567;50.916;6.900;2022-07-06T03:36:48;3.17;;;1.80;;
14945;SDS011;7567;50.916;6.900;2022-07-06T03:39:14;4.90;;;1.85;;
14945;SDS011;7567;50.916;6.900;2022-07-06T03:41:40;4.30;;;1.90;;
14945;SDS011;7567;50.916;6.900;2022-07-06T03:44:06;4.22;;;1.92;;
14945;SDS011;7567;50.916;6.900;2022-07-06T03:46:32;4.88;;;2.28;;
14945;SDS011;7567;50.916;6.900;2022-07-06T03:48:58;2.25;;;2.00;;
14945;SDS011;7567;50.916;6.900;2022-07-06T03:51:24;3.63;;;2.03;;
14945;SDS011;7567;50.916;6.900;2022-07-06T03:53:50;5.10;;;2.53;;
14945;SDS011;7567;50.916;6.900;2022-07-06T03:56:16;3.58;;;2.10;;
14945;SDS011;7567;50.916;6.900;2022-07-06T03:58:57;3.20;;;2.20;;
14945;SDS011;7567;50.916;6.900;2022-07-06T04:01:25;2.70;;;1.98;;
14945;SDS011;7567;50.916;6.900;2022-07-06T04:03:51;4.20;;;2.33;;
14945;SDS011;7567;50.916;6.900;2022-07-06T04:06:17;3.10;;;2.00;;
14945;SDS011;7567;50.916;6.900;2022-07-06T04:08:43;3.83;;;1.95;;
14945;SDS011;7567;50.916;6.900;2022-07-06T04:11:09;4.80;;;2.72;;
14945;SDS011;7567;50.916;6.900;2022-07-06T04:13:35;4.43;;;2.22;;
14945;SDS011;7567;50.916;6.900;2022-07-06T04:16:02;4.00;;;1.92;;
14945;SDS011;7567;50.916;6.900;2022-07-06T04:18:28;5.30;;;2.20;;
14945;SDS011;7567;50.916;6.900;2022-07-06T04:20:54;4.18;;;2.05;;
14945;SDS011;7567;50.916;6.900;2022-07-06T04:23:22;5.50;;;2.47;;
14945;SDS011;7567;50.916;6.900;2022-07-06T04:25:48;4.72;;;2.67;;
14945;SDS011;7567;50.916;6.900;2022-07-06T04:28:14;9.23;;;3.08;;
14945;SDS011;7567;50.916;6.900;2022-07-06T04:30:41;6.18;;;2.78;;
14945;SDS011;7567;50.916;6.900;2022-07-06T04:33:07;5.50;;;2.72;;
14945;SDS011;7567;50.916;6.900;2022-07-06T04:35:33;6.53;;;2.95;;
14945;SDS011;7567;50.916;6.900;2022-07-06T04:37:59;6.55;;;3.08;;
14945;SDS011;7567;50.916;6.900;2022-07-06T04:40:25;4.32;;;2.88;;
14945;SDS011;7567;50.916;6.900;2022-07-06T04:42:51;6.72;;;2.65;;
14945;SDS011;7567;50.916;6.900;2022-07-06T04:45:18;5.90;;;3.20;;
14945;SDS011;7567;50.916;6.900;2022-07-06T04:47:44;4.93;;;2.92;;
14945;SDS011;7567;50.916;6.900;2022-07-06T04:50:10;4.28;;;3.00;;
14945;SDS011;7567;50.916;6.900;2022-07-06T04:52:37;4.78;;;3.25;;
14945;SDS011;7567;50.916;6.900;2022-07-06T04:55:03;5.68;;;3.22;;
14945;SDS011;7567;50.916;6.900;2022-07-06T04:57:31;4.97;;;2.72;;
14945;SDS011;7567;50.916;6.900;2022-07-06T04:59:57;3.75;;;2.92;;
14945;SDS011;7567;50.916;6.900;2022-07-06T05:02:23;6.60;;;3.03;;
14945;SDS011;7567;50.916;6.900;2022-07-06T05:04:49;6.72;;;3.55;;
14945;SDS011;7567;50.916;6.900;2022-07-06T05:07:15;4.85;;;3.10;;
14945;SDS011;7567;50.916;6.900;2022-07-06T05:09:41;5.78;;;3.40;;
14945;SDS011;7567;50.916;6.900;2022-07-06T05:12:08;6.55;;;3.65;;
14945;SDS011;7567;50.916;6.900;2022-07-06T05:14:34;4.70;;;3.63;;
14945;SDS011;7567;50.916;6.900;2022-07-06T05:17:01;8.18;;;3.30;;
14945;SDS011;7567;50.916;6.900;2022-07-06T05:19:28;5.93;;;3.22;;
14945;SDS011;7567;50.916;6.900;2022-07-06T05:21:54;7.00;;;3.80;;
14945;SDS011;7567;50.916;6.900;2022-07-06T05:24:20;5.32;;;3.60;;
14945;SDS011;7567;50.916;6.900;2022-07-06T05:26:46;5.25;;;3.65;;
14945;SDS011;7567;50.916;6.900;2022-07-06T05:29:12;4.60;;;3.20;;
14945;SDS011;7567;50.916;6.900;2022-07-06T05:31:38;6.07;;;3.63;;
14945;SDS011;7567;50.916;6.900;2022-07-06T05:34:04;8.35;;;4.10;;
14945;SDS011;7567;50.916;6.900;2022-07-06T05:36:30;5.53;;;3.60;;
14945;SDS011;7567;50.916;6.900;2022-07-06T05:38:56;5.40;;;3.55;;
14945;SDS011;7567;50.916;6.900;2022-07-06T05:41:22;6.72;;;3.03;;
14945;SDS011;7567;50.916;6.900;2022-07-06T05:43:48;6.00;;;3.13;;
14945;SDS011;7567;50.916;6.900;2022-07-06T05:46:14;5.72;;;3.53;;
14945;SDS011;7567;50.916;6.900;2022-07-06T05:48:40;7.65;;;2.80;;
14945;SDS011;7567;50.916;6.900;2022-07-06T05:51:24;7.85;;;3.80;;
14945;SDS011;7567;50.916;6.900;2022-07-06T05:53:50;10.05;;;3.30;;
14945;SDS011;7567;50.916;6.900;2022-07-06T05:56:16;9.88;;;3.28;;
14945;SDS011;7567;50.916;6.900;2022-07-06T05:58:42;5.30;;;2.75;;
14945;SDS011;7567;50.916;6.900;2022-07-06T06:01:08;7.22;;;2.58;;
14945;SDS011;7567;50.916;6.900;2022-07-06T06:03:35;7.47;;;2.80;;
14945;SDS011;7567;50.916;6.900;2022-07-06T06:06:01;9.00;;;2.70;;
14945;SDS011;7567;50.916;6.900;2022-07-06T06:08:27;7.88;;;2.35;;
14945;SDS011;7567;50.916;6.900;2022-07-06T06:10:53;7.30;;;2.60;;
14945;SDS011;7567;50.916;6.900;2022-07-06T06:13:19;9.07;;;2.40;;
14945;SDS011;7567;50.916;6.900;2022-07-06T06:15:45;4.20;;;2.13;;
14945;SDS011;7567;50.916;6.900;2022-07-06T06:18:11;7.85;;;2.10;;
14945;SDS011;7567;50.916;6.900;2022-07-06T06:20:37;4.25;;;1.88;;
14945;SDS011;7567;50.916;6.900;2022-07-06T06:23:03;8.57;;;2.10;;
14945;SDS011;7567;50.916;6.900;2022-07-06T06:25:33;6.30;;;1.83;;
14945;SDS011;7567;50.916;6.900;2022-07-06T06:28:02;4.07;;;2.00;;
14945;SDS011;7567;50.916;6.900;2022-07-06T06:30:29;5.38;;;1.70;;
14945;SDS011;7567;50.916;6.900;2022-07-06T06:33:07;4.43;;;1.83;;
14945;SDS011;7567;50.916;6.900;2022-07-06T06:35:45;4.20;;;1.35;;
14945;SDS011;7567;50.916;6.900;2022-07-06T06:38:15;5.35;;;1.58;;
14945;SDS011;7567;50.916;6.900;2022-07-06T06:40:42;7.35;;;1.88;;
14945;SDS011;7567;50.916;6.900;2022-07-06T06:43:08;6.78;;;1.98;;
14945;SDS011;7567;50.916;6.900;2022-07-06T06:45:34;3.33;;;1.75;;
14945;SDS011;7567;50.916;6.900;2022-07-06T06:48:01;4.45;;;1.50;;
14945;SDS011;7567;50.916;6.900;2022-07-06T06:50:28;8.50;;;1.88;;
14945;SDS011;7567;50.916;6.900;2022-07-06T06:52:58;3.97;;;1.30;;
14945;SDS011;7567;50.916;6.900;2022-07-06T06:55:25;4.88;;;1.90;;
14945;SDS011;7567;50.916;6.900;2022-07-06T06:57:52;4.35;;;1.58;;
14945;SDS011;7567;50.916;6.900;2022-07-06T07:00:29;4.30;;;1.42;;
14945;SDS011;7567;50.916;6.900;2022-07-06T07:02:54;4.65;;;1.58;;
14945;SDS011;7567;50.916;6.900;2022-07-06T07:05:21;6.18;;;2.15;;
14945;SDS011;7567;50.916;6.900;2022-07-06T07:07:47;2.58;;;1.35;;
14945;SDS011;7567;50.916;6.900;2022-07-06T07:10:13;4.85;;;1.80;;
14945;SDS011;7567;50.916;6.900;2022-07-06T07:12:45;6.53;;;2.10;;
14945;SDS011;7567;50.916;6.900;2022-07-06T07:15:12;6.15;;;1.48;;
14945;SDS011;7567;50.916;6.900;2022-07-06T07:17:39;6.45;;;1.48;;
14945;SDS011;7567;50.916;6.900;2022-07-06T07:20:05;3.72;;;1.73;;
14945;SDS011;7567;50.916;6.900;2022-07-06T07:22:32;4.80;;;1.42;;
14945;SDS011;7567;50.916;6.900;2022-07-06T07:24:58;5.95;;;1.58;;
14945;SDS011;7567;50.916;6.900;2022-07-06T07:27:26;4.72;;;1.98;;
14945;SDS011;7567;50.916;6.900;2022-07-06T07:29:52;4.80;;;1.50;;
14945;SDS011;7567;50.916;6.900;2022-07-06T07:32:18;4.43;;;1.63;;
14945;SDS011;7567;50.916;6.900;2022-07-06T07:34:45;7.40;;;1.98;;
14945;SDS011;7567;50.916;6.900;2022-07-06T07:37:11;3.00;;;1.80;;
14945;SDS011;7567;50.916;6.900;2022-07-06T07:39:37;7.78;;;2.92;;
14945;SDS011;7567;50.916;6.900;2022-07-06T07:42:03;8.13;;;2.50;;
14945;SDS011;7567;50.916;6.900;2022-07-06T07:44:31;5.45;;;1.98;;
14945;SDS011;7567;50.916;6.900;2022-07-06T07:46:57;6.80;;;1.88;;
14945;SDS011;7567;50.916;6.900;2022-07-06T07:49:23;3.15;;;1.90;;
14945;SDS011;7567;50.916;6.900;2022-07-06T07:51:49;5.10;;;2.00;;
14945;SDS011;7567;50.916;6.900;2022-07-06T07:54:15;5.30;;;1.70;;
14945;SDS011;7567;50.916;6.900;2022-07-06T07:56:41;4.72;;;1.42;;
14945;SDS011;7567;50.916;6.900;2022-07-06T07:59:07;3.42;;;1.63;;
14945;SDS011;7567;50.916;6.900;2022-07-06T08:01:33;7.13;;;1.77;;
14945;SDS011;7567;50.916;6.900;2022-07-06T08:04:00;5.30;;;1.45;;
14945;SDS011;7567;50.916;6.900;2022-07-06T08:06:25;4.35;;;1.33;;
14945;SDS011;7567;50.916;6.900;2022-07-06T08:08:51;3.60;;;1.48;;
14945;SDS011;7567;50.916;6.900;2022-07-06T08:11:18;4.88;;;1.33;;
14945;SDS011;7567;50.916;6.900;2022-07-06T08:13:44;5.15;;;1.38;;
14945;SDS011;7567;50.916;6.900;2022-07-06T08:16:10;4.15;;;1.20;;
14945;SDS011;7567;50.916;6.900;2022-07-06T08:18:36;3.45;;;1.10;;
14945;SDS011;7567;50.916;6.900;2022-07-06T08:21:03;4.22;;;1.30;;
14945;SDS011;7567;50.916;6.900;2022-07-06T08:23:29;3.88;;;1.23;;
14945;SDS011;7567;50.916;6.900;2022-07-06T08:25:55;3.00;;;1.42;;
14945;SDS011;7567;50.916;6.900;2022-07-06T08:28:21;3.60;;;1.13;;
14945;SDS011;7567;50.916;6.900;2022-07-06T08:30:47;6.75;;;1.23;;
14945;SDS011;7567;50.916;6.900;2022-07-06T08:33:14;2.65;;;1.35;;
14945;SDS011;7567;50.916;6.900;2022-07-06T08:35:40;1.98;;;0.85;;
14945;SDS011;7567;50.916;6.900;2022-07-06T08:38:07;2.35;;;0.82;;
14945;SDS011;7567;50.916;6.900;2022-07-06T08:40:35;3.88;;;1.00;;
14945;SDS011;7567;50.916;6.900;2022-07-06T08:43:04;3.17;;;1.00;;
14945;SDS011;7567;50.916;6.900;2022-07-06T08:45:30;1.88;;;0.75;;
14945;SDS011;7567;50.916;6.900;2022-07-06T08:48:00;4.30;;;1.02;;
14945;SDS011;7567;50.916;6.900;2022-07-06T08:50:31;1.92;;;1.10;;
14945;SDS011;7567;50.916;6.900;2022-07-06T08:53:00;3.28;;;1.20;;
14945;SDS011;7567;50.916;6.900;2022-07-06T08:55:27;5.45;;;1.08;;
14945;SDS011;7567;50.916;6.900;2022-07-06T08:57:55;1.70;;;0.77;;
14945;SDS011;7567;50.916;6.900;2022-07-06T09:00:22;4.13;;;1.17;;
14945;SDS011;7567;50.916;6.900;2022-07-06T09:02:50;4.18;;;1.38;;
14945;SDS011;7567;50.916;6.900;2022-07-06T09:05:21;4.95;;;1.00;;
14945;SDS011;7567;50.916;6.900;2022-07-06T09:07:50;3.45;;;0.95;;
14945;SDS011;7567;50.916;6.900;2022-07-06T09:10:18;3.67;;;1.35;;
14945;SDS011;7567;50.916;6.900;2022-07-06T09:12:45;3.78;;;1.00;;
14945;SDS011;7567;50.916;6.900;2022-07-06T09:15:12;1.98;;;0.93;;
14945;SDS011;7567;50.916;6.900;2022-07-06T09:17:38;2.92;;;0.70;;
14945;SDS011;7567;50.916;6.900;2022-07-06T09:20:09;2.80;;;1.00;;
14945;SDS011;7567;50.916;6.900;2022-07-06T09:22:39;5.30;;;1.30;;
14945;SDS011;7567;50.916;6.900;2022-07-06T09:25:06;1.98;;;1.00;;
14945;SDS011;7567;50.916;6.900;2022-07-06T09:35:04;3.25;;;0.93;;
14945;SDS011;7567;50.916;6.900;2022-07-06T09:37:30;5.07;;;0.80;;
14945;SDS011;7567;50.916;6.900;2022-07-06T09:39:57;2.45;;;1.17;;
14945;SDS011;7567;50.916;6.900;2022-07-06T09:42:26;4.03;;;1.17;;
14945;SDS011;7567;50.916;6.900;2022-07-06T09:44:52;2.15;;;0.80;;
14945;SDS011;7567;50.916;6.900;2022-07-06T09:47:19;2.10;;;1.05;;
14945;SDS011;7567;50.916;6.900;2022-07-06T09:49:45;2.38;;;0.85;;
14945;SDS011;7567;50.916;6.900;2022-07-06T09:52:15;2.40;;;0.80;;
14945;SDS011;7567;50.916;6.900;2022-07-06T09:54:43;1.52;;;0.95;;
14945;SDS011;7567;50.916;6.900;2022-07-06T09:57:14;3.72;;;1.00;;
14945;SDS011;7567;50.916;6.900;2022-07-06T09:59:40;4.00;;;1.25;;
14945;SDS011;7567;50.916;6.900;2022-07-06T10:02:07;2.58;;;1.10;;
14945;SDS011;7567;50.916;6.900;2022-07-06T10:04:34;3.25;;;1.30;;
14945;SDS011;7567;50.916;6.900;2022-07-06T10:07:01;3.70;;;1.05;;
14945;SDS011;7567;50.916;6.900;2022-07-06T10:09:28;2.28;;;0.90;;
14945;SDS011;7567;50.916;6.900;2022-07-06T10:11:56;2.72;;;1.13;;
14945;SDS011;7567;50.916;6.900;2022-07-06T10:14:26;4.97;;;1.30;;
14945;SDS011;7567;50.916;6.900;2022-07-06T10:16:54;4.82;;;1.40;;
14945;SDS011;7567;50.916;6.900;2022-07-06T10:19:25;4.13;;;1.17;;
14945;SDS011;7567;50.916;6.900;2022-07-06T10:21:56;3.53;;;1.25;;
14945;SDS011;7567;50.916;6.900;2022-07-06T10:24:27;2.35;;;1.20;;
14945;SDS011;7567;50.916;6.900;2022-07-06T10:27:04;3.22;;;1.27;;
14945;SDS011;7567;50.916;6.900;2022-07-06T10:29:47;3.15;;;1.10;;
14945;SDS011;7567;50.916;6.900;2022-07-06T10:32:18;3.50;;;1.10;;
14945;SDS011;7567;50.916;6.900;2022-07-06T10:34:54;3.03;;;1.25;;
14945;SDS011;7567;50.916;6.900;2022-07-06T10:37:26;1.83;;;1.13;;
14945;SDS011;7567;50.916;6.900;2022-07-06T10:40:00;7.53;;;1.27;;
14945;SDS011;7567;50.916;6.900;2022-07-06T10:42:58;1.70;;;0.80;;
14945;SDS011;7567;50.916;6.900;2022-07-06T10:50:54;3.28;;;1.00;;
14945;SDS011;7567;50.916;6.900;2022-07-06T10:53:27;2.58;;;0.88;;
14945;SDS011;7567;50.916;6.900;2022-07-06T10:56:07;2.58;;;1.00;;
14945;SDS011;7567;50.916;6.900;2022-07-06T11:01:16;2.65;;;1.20;;
14945;SDS011;7567;50.916;6.900;2022-07-06T11:03:45;3.83;;;1.20;;
14945;SDS011;7567;50.916;6.900;2022-07-06T11:06:17;2.50;;;1.10;;
14945;SDS011;7567;50.916;6.900;2022-07-06T11:08:56;7.32;;;1.40;;
14945;SDS011;7567;50.916;6.900;2022-07-06T11:14:10;2.63;;;0.90;;
14945;SDS011;7567;50.916;6.900;2022-07-06T11:19:31;4.70;;;1.13;;
14945;SDS011;7567;50.916;6.900;2022-07-06T11:22:04;2.55;;;1.15;;
14945;SDS011;7567;50.916;6.900;2022-07-06T11:24:38;2.88;;;1.00;;
14945;SDS011;7567;50.916;6.900;2022-07-06T11:27:09;2.25;;;1.02;;
14945;SDS011;7567;50.916;6.900;2022-07-06T11:29:46;3.35;;;1.17;;
14945;SDS011;7567;50.916;6.900;2022-07-06T11:32:53;3.78;;;1.02;;
14945;SDS011;7567;50.916;6.900;2022-07-06T11:35:29;2.17;;;0.85;;
14945;SDS011;7567;50.916;6.900;2022-07-06T11:37:59;3.95;;;1.05;;
14945;SDS011;7567;50.916;6.900;2022-07-06T11:41:03;3.15;;;1.00;;
14945;SDS011;7567;50.916;6.900;2022-07-06T11:44:06;3.15;;;1.00;;
14945;SDS011;7567;50.916;6.900;2022-07-06T11:46:44;4.35;;;1.15;;
14945;SDS011;7567;50.916;6.900;2022-07-06T11:49:21;3.55;;;1.20;;
14945;SDS011;7567;50.916;6.900;2022-07-06T11:51:50;2.78;;;0.88;;
14945;SDS011;7567;50.916;6.900;2022-07-06T11:54:22;4.55;;;1.10;;
14945;SDS011;7567;50.916;6.900;2022-07-06T11:56:57;2.17;;;0.88;;
14945;SDS011;7567;50.916;6.900;2022-07-06T11:59:26;2.35;;;0.73;;
14945;SDS011;7567;50.916;6.900;2022-07-06T12:02:07;3.72;;;1.00;;
14945;SDS011;7567;50.916;6.900;2022-07-06T12:04:36;3.67;;;1.08;;
14945;SDS011;7567;50.916;6.900;2022-07-06T12:07:09;2.85;;;0.95;;
14945;SDS011;7567;50.916;6.900;2022-07-06T12:09:41;0.82;;;0.73;;
14945;SDS011;7567;50.916;6.900;2022-07-06T12:12:13;3.22;;;0.95;;
14945;SDS011;7567;50.916;6.900;2022-07-06T12:14:43;5.00;;;1.33;;
14945;SDS011;7567;50.916;6.900;2022-07-06T12:17:12;3.92;;;1.08;;
14945;SDS011;7567;50.916;6.900;2022-07-06T12:19:44;3.97;;;0.95;;
14945;SDS011;7567;50.916;6.900;2022-07-06T12:22:25;4.13;;;1.20;;
14945;SDS011;7567;50.916;6.900;2022-07-06T12:24:54;3.80;;;1.30;;
14945;SDS011;7567;50.916;6.900;2022-07-06T12:27:26;4.80;;;1.08;;
14945;SDS011;7567;50.916;6.900;2022-07-06T12:30:10;10.77;;;1.40;;
14945;SDS011;7567;50.916;6.900;2022-07-06T12:32:46;5.20;;;1.25;;
14945;SDS011;7567;50.916;6.900;2022-07-06T12:35:35;3.97;;;1.30;;
14945;SDS011;7567;50.916;6.900;2022-07-06T12:38:08;2.80;;;1.17;;
14945;SDS011;7567;50.916;6.900;2022-07-06T12:40:52;2.10;;;0.93;;
14945;SDS011;7567;50.916;6.900;2022-07-06T12:43:38;1.85;;;0.95;;
14945;SDS011;7567;50.916;6.900;2022-07-06T12:46:28;4.32;;;1.13;;
14945;SDS011;7567;50.916;6.900;2022-07-06T12:48:58;3.53;;;1.10;;
14945;SDS011;7567;50.916;6.900;2022-07-06T12:54:42;3.22;;;0.98;;
14945;SDS011;7567;50.916;6.900;2022-07-06T12:57:23;4.50;;;1.10;;
14945;SDS011;7567;50.916;6.900;2022-07-06T13:00:14;3.38;;;1.08;;
14945;SDS011;7567;50.916;6.900;2022-07-06T13:02:47;4.50;;;1.27;;
14945;SDS011;7567;50.916;6.900;2022-07-06T13:05:28;3.47;;;1.27;;
14945;SDS011;7567;50.916;6.900;2022-07-06T13:08:06;3.88;;;1.13;;
14945;SDS011;7567;50.916;6.900;2022-07-06T13:10:48;5.15;;;1.17;;
14945;SDS011;7567;50.916;6.900;2022-07-06T13:13:18;3.78;;;1.33;;
14945;SDS011;7567;50.916;6.900;2022-07-06T13:15:50;3.28;;;1.40;;
14945;SDS011;7567;50.916;6.900;2022-07-06T13:18:20;3.40;;;0.93;;
14945;SDS011;7567;50.916;6.900;2022-07-06T13:20:52;5.03;;;1.00;;
14945;SDS011;7567;50.916;6.900;2022-07-06T13:23:25;3.30;;;1.15;;
14945;SDS011;7567;50.916;6.900;2022-07-06T13:26:00;4.93;;;1.13;;
14945;SDS011;7567;50.916;6.900;2022-07-06T13:28:36;6.53;;;1.45;;
14945;SDS011;7567;50.916;6.900;2022-07-06T13:31:13;5.85;;;1.05;;
14945;SDS011;7567;50.916;6.900;2022-07-06T13:33:47;3.63;;;1.00;;
14945;SDS011;7567;50.916;6.900;2022-07-06T13:36:31;2.90;;;1.05;;
14945;SDS011;7567;50.916;6.900;2022-07-06T13:39:10;3.45;;;1.13;;
14945;SDS011;7567;50.916;6.900;2022-07-06T13:41:40;4.88;;;1.10;;
14945;SDS011;7567;50.916;6.900;2022-07-06T13:44:16;4.45;;;1.00;;
14945;SDS011;7567;50.916;6.900;2022-07-06T13:46:58;5.93;;;1.02;;
14945;SDS011;7567;50.916;6.900;2022-07-06T13:49:34;6.13;;;1.27;;
14945;SDS011;7567;50.916;6.900;2022-07-06T13:52:03;4.30;;;0.85;;
14945;SDS011;7567;50.916;6.900;2022-07-06T13:54:35;4.88;;;0.80;;
14945;SDS011;7567;50.916;6.900;2022-07-06T13:57:05;2.78;;;1.25;;
14945;SDS011;7567;50.916;6.900;2022-07-06T13:59:45;6.43;;;1.13;;
14945;SDS011;7567;50.916;6.900;2022-07-06T14:02:14;3.55;;;0.80;;
14945;SDS011;7567;50.916;6.900;2022-07-06T14:04:43;3.85;;;0.88;;
14945;SDS011;7567;50.916;6.900;2022-07-06T14:07:12;1.20;;;0.65;;
14945;SDS011;7567;50.916;6.900;2022-07-06T14:09:42;3.85;;;0.98;;
14945;SDS011;7567;50.916;6.900;2022-07-06T14:12:15;4.22;;;0.88;;
14945;SDS011;7567;50.916;6.900;2022-07-06T14:14:56;4.78;;;0.98;;
14945;SDS011;7567;50.916;6.900;2022-07-06T14:17:40;4.80;;;1.33;;
14945;SDS011;7567;50.916;6.900;2022-07-06T14:20:24;2.03;;;0.90;;
14945;SDS011;7567;50.916;6.900;2022-07-06T14:22:59;4.88;;;0.90;;
14945;SDS011;7567;50.916;6.900;2022-07-06T14:25:37;2.95;;;0.93;;
14945;SDS011;7567;50.916;6.900;2022-07-06T14:28:21;2.67;;;0.63;;
14945;SDS011;7567;50.916;6.900;2022-07-06T14:31:05;2.60;;;1.00;;
14945;SDS011;7567;50.916;6.900;2022-07-06T14:33:44;1.08;;;0.75;;
14945;SDS011;7567;50.916;6.900;2022-07-06T14:36:15;2.40;;;0.73;;
14945;SDS011;7567;50.916;6.900;2022-07-06T14:38:45;4.90;;;0.80;;
14945;SDS011;7567;50.916;6.900;2022-07-06T14:41:15;4.25;;;1.20;;
14945;SDS011;7567;50.916;6.900;2022-07-06T14:43:46;1.67;;;0.73;;
14945;SDS011;7567;50.916;6.900;2022-07-06T14:46:20;1.85;;;0.85;;
14945;SDS011;7567;50.916;6.900;2022-07-06T14:48:51;1.38;;;0.77;;
14945;SDS011;7567;50.916;6.900;2022-07-06T14:51:22;4.60;;;1.02;;
14945;SDS011;7567;50.916;6.900;2022-07-06T14:53:56;2.58;;;1.00;;
14945;SDS011;7567;50.916;6.900;2022-07-06T14:56:30;2.45;;;0.77;;
14945;SDS011;7567;50.916;6.900;2022-07-06T14:59:29;3.20;;;1.20;;
14945;SDS011;7567;50.916;6.900;2022-07-06T15:02:02;1.83;;;1.02;;
14945;SDS011;7567;50.916;6.900;2022-07-06T15:04:43;4.78;;;1.30;;
14945;SDS011;7567;50.916;6.900;2022-07-06T15:07:21;3.00;;;1.75;;
14945;SDS011;7567;50.916;6.900;2022-07-06T15:10:02;3.40;;;1.23;;
14945;SDS011;7567;50.916;6.900;2022-07-06T15:12:41;1.60;;;0.73;;
14945;SDS011;7567;50.916;6.900;2022-07-06T15:15:26;4.75;;;2.67;;
14945;SDS011;7567;50.916;6.900;2022-07-06T15:18:02;0.98;;;0.80;;
14945;SDS011;7567;50.916;6.900;2022-07-06T15:20:35;4.25;;;0.98;;
14945;SDS011;7567;50.916;6.900;2022-07-06T15:23:08;2.70;;;1.38;;
14945;SDS011;7567;50.916;6.900;2022-07-06T15:25:50;1.95;;;0.85;;
14945;SDS011;7567;50.916;6.900;2022-07-06T15:28:36;2.67;;;0.73;;
14945;SDS011;7567;50.916;6.900;2022-07-06T15:31:31;2.80;;;1.00;;
14945;SDS011;7567;50.916;6.900;2022-07-06T15:34:18;3.63;;;0.95;;
14945;SDS011;7567;50.916;6.900;2022-07-06T15:36:49;2.45;;;1.02;;
14945;SDS011;7567;50.916;6.900;2022-07-06T15:39:23;4.60;;;0.88;;
14945;SDS011;7567;50.916;6.900;2022-07-06T15:41:55;4.18;;;0.95;;